sensor_id;sensor_type;location;lat;lon;timestamp;pressure;altitude;pressure_sealevel;temperature;humidity
71770;BME280;66386;52.122;5.420;2023-05-08T00:01:02;102192.00;;;12.54;91.12
71770;BME280;66386;52.122;5.420;2023-05-08T00:03:29;102197.16;;;12.54;90.92
71770;BME280;66386;52.122;5.420;2023-05-08T00:05:56;102199.81;;;12.51;91.13
71770;BME280;66386;52.122;5.420;2023-05-08T00:08:23;102204.19;;;12.48;91.03
71770;BME280;66386;52.122;5.420;2023-05-08T00:10:49;102196.56;;;12.43;91.10
71770;BME280;66386;52.122;5.420;2023-05-08T00:13:16;102196.63;;;12.40;91.07
71770;BME280;66386;52.122;5.420;2023-05-08T00:15:42;102195.75;;;12.39;91.22
71770;BME280;66386;52.122;5.420;2023-05-08T00:18:09;102187.25;;;12.36;91.29
71770;BME280;66386;52.122;5.420;2023-05-08T00:20:35;102187.28;;;12.34;91.29
71770;BME280;66386;52.122;5.420;2023-05-08T00:23:02;102185.63;;;12.32;91.18
71770;BME280;66386;52.122;5.420;2023-05-08T00:25:28;102176.25;;;12.28;91.21
71770;BME280;66386;52.122;5.420;2023-05-08T00:27:57;102174.63;;;12.25;91.16
71770;BME280;66386;52.122;5.420;2023-05-08T00:30:24;102173.00;;;12.21;91.25
71770;BME280;66386;52.122;5.420;2023-05-08T00:32:50;102177.31;;;12.19;91.17
71770;BME280;66386;52.122;5.420;2023-05-08T00:35:17;102176.50;;;12.17;91.09
71770;BME280;66386;52.122;5.420;2023-05-08T00:37:43;102182.59;;;12.13;91.26
71770;BME280;66386;52.122;5.420;2023-05-08T00:40:10;102179.28;;;12.09;91.16
71770;BME280;66386;52.122;5.420;2023-05-08T00:42:37;102188.75;;;12.07;91.22
71770;BME280;66386;52.122;5.420;2023-05-08T00:45:04;102182.84;;;12.02;91.19
71770;BME280;66386;52.122;5.420;2023-05-08T00:47:31;102180.34;;;11.99;91.17
71770;BME280;66386;52.122;5.420;2023-05-08T00:49:59;102179.63;;;11.91;91.25
71770;BME280;66386;52.122;5.420;2023-05-08T00:52:28;102172.03;;;11.84;91.39
71770;BME280;66386;52.122;5.420;2023-05-08T00:54:56;102168.69;;;11.79;91.41
71770;BME280;66386;52.122;5.420;2023-05-08T00:57:23;102169.59;;;11.77;91.50
71770;BME280;66386;52.122;5.420;2023-05-08T00:59:49;102167.09;;;11.72;91.50
71770;BME280;66386;52.122;5.420;2023-05-08T01:02:16;102174.03;;;11.70;91.77
71770;BME280;66386;52.122;5.420;2023-05-08T01:04:44;102178.31;;;11.69;91.61
71770;BME280;66386;52.122;5.420;2023-05-08T01:07:11;102174.03;;;11.70;91.64
71770;BME280;66386;52.122;5.420;2023-05-08T01:09:37;102167.16;;;11.69;91.43
71770;BME280;66386;52.122;5.420;2023-05-08T01:12:23;102177.53;;;11.66;91.35
71770;BME280;66386;52.122;5.420;2023-05-08T01:15:03;102182.78;;;11.61;91.57
71770;BME280;66386;52.122;5.420;2023-05-08T01:20:25;102178.63;;;11.54;91.79
71770;BME280;66386;52.122;5.420;2023-05-08T01:25:52;102181.28;;;11.51;91.92
71770;BME280;66386;52.122;5.420;2023-05-08T01:31:23;102177.06;;;11.47;92.30
71770;BME280;66386;52.122;5.420;2023-05-08T01:34:23;102177.06;;;11.45;92.03
71770;BME280;66386;52.122;5.420;2023-05-08T01:37:03;102179.72;;;11.42;92.14
71770;BME280;66386;52.122;5.420;2023-05-08T01:42:12;102185.75;;;11.40;92.00
71770;BME280;66386;52.122;5.420;2023-05-08T01:44:48;102185.00;;;11.36;91.98
71770;BME280;66386;52.122;5.420;2023-05-08T01:47:17;102180.72;;;11.35;92.10
71770;BME280;66386;52.122;5.420;2023-05-08T01:49:48;102183.31;;;11.33;92.09
71770;BME280;66386;52.122;5.420;2023-05-08T01:52:20;102185.03;;;11.31;92.29
71770;BME280;66386;52.122;5.420;2023-05-08T01:54:54;102181.66;;;11.29;92.06
71770;BME280;66386;52.122;5.420;2023-05-08T01:57:25;102184.28;;;11.28;91.91
71770;BME280;66386;52.122;5.420;2023-05-08T01:59:55;102184.28;;;11.28;91.92
71770;BME280;66386;52.122;5.420;2023-05-08T02:02:23;102187.75;;;11.25;91.96
71770;BME280;66386;52.122;5.420;2023-05-08T02:04:51;102194.66;;;11.23;91.93
71770;BME280;66386;52.122;5.420;2023-05-08T02:07:21;102192.97;;;11.21;91.90
71770;BME280;66386;52.122;5.420;2023-05-08T02:09:50;102192.09;;;11.22;92.02
71770;BME280;66386;52.122;5.420;2023-05-08T02:12:19;102192.13;;;11.20;91.94
71770;BME280;66386;52.122;5.420;2023-05-08T02:14:48;102193.84;;;11.20;91.97
71770;BME280;66386;52.122;5.420;2023-05-08T02:17:16;102190.47;;;11.16;92.20
71770;BME280;66386;52.122;5.420;2023-05-08T02:19:43;102196.53;;;11.13;92.29
71770;BME280;66386;52.122;5.420;2023-05-08T02:22:12;102194.00;;;11.10;92.48
71770;BME280;66386;52.122;5.420;2023-05-08T02:24:40;102193.19;;;11.08;92.55
71770;BME280;66386;52.122;5.420;2023-05-08T02:27:09;102199.19;;;11.09;92.74
71770;BME280;66386;52.122;5.420;2023-05-08T02:29:36;102198.34;;;11.07;92.68
71770;BME280;66386;52.122;5.420;2023-05-08T02:32:05;102205.22;;;11.06;92.73
71770;BME280;66386;52.122;5.420;2023-05-08T02:34:34;102208.66;;;11.05;92.68
71770;BME280;66386;52.122;5.420;2023-05-08T02:37:02;102204.44;;;11.03;92.65
71770;BME280;66386;52.122;5.420;2023-05-08T02:39:31;102204.47;;;11.01;92.72
71770;BME280;66386;52.122;5.420;2023-05-08T02:42:00;102205.34;;;10.98;92.86
71770;BME280;66386;52.122;5.420;2023-05-08T02:44:27;102209.63;;;10.99;92.79
71770;BME280;66386;52.122;5.420;2023-05-08T02:52:15;102205.50;;;10.91;92.77
71770;BME280;66386;52.122;5.420;2023-05-08T02:54:48;102205.50;;;10.89;92.68
71770;BME280;66386;52.122;5.420;2023-05-08T02:57:45;102202.91;;;10.89;92.91
71770;BME280;66386;52.122;5.420;2023-05-08T03:00:23;102203.00;;;10.85;92.84
71770;BME280;66386;52.122;5.420;2023-05-08T03:02:56;102197.84;;;10.85;92.77
71770;BME280;66386;52.122;5.420;2023-05-08T03:05:30;102206.44;;;10.85;92.77
71770;BME280;66386;52.122;5.420;2023-05-08T03:08:03;102196.19;;;10.83;92.89
71770;BME280;66386;52.122;5.420;2023-05-08T03:10:34;102195.34;;;10.81;92.89
71770;BME280;66386;52.122;5.420;2023-05-08T03:13:03;102197.13;;;10.78;92.87
71770;BME280;66386;52.122;5.420;2023-05-08T03:15:39;102187.69;;;10.77;93.05
71770;BME280;66386;52.122;5.420;2023-05-08T03:18:10;102188.59;;;10.74;93.10
71770;BME280;66386;52.122;5.420;2023-05-08T03:20:41;102187.81;;;10.71;93.29
71770;BME280;66386;52.122;5.420;2023-05-08T03:23:11;102185.28;;;10.68;93.21
71770;BME280;66386;52.122;5.420;2023-05-08T03:25:41;102181.09;;;10.60;93.09
71770;BME280;66386;52.122;5.420;2023-05-08T03:28:09;102188.91;;;10.54;93.13
71770;BME280;66386;52.122;5.420;2023-05-08T03:30:39;102183.78;;;10.53;93.11
71770;BME280;66386;52.122;5.420;2023-05-08T03:33:07;102184.66;;;10.52;93.27
71770;BME280;66386;52.122;5.420;2023-05-08T03:35:35;102179.56;;;10.48;92.95
71770;BME280;66386;52.122;5.420;2023-05-08T03:38:06;102183.88;;;10.46;93.03
71770;BME280;66386;52.122;5.420;2023-05-08T03:40:35;102183.84;;;10.48;93.03
71770;BME280;66386;52.122;5.420;2023-05-08T03:43:07;102181.34;;;10.43;93.07
71770;BME280;66386;52.122;5.420;2023-05-08T03:45:35;102178.78;;;10.43;93.30
71770;BME280;66386;52.122;5.420;2023-05-08T03:48:04;102181.34;;;10.43;93.46
71770;BME280;66386;52.122;5.420;2023-05-08T03:50:31;102180.50;;;10.44;93.44
71770;BME280;66386;52.122;5.420;2023-05-08T03:52:59;102177.94;;;10.43;93.51
71770;BME280;66386;52.122;5.420;2023-05-08T03:55:26;102178.81;;;10.40;93.54
71770;BME280;66386;52.122;5.420;2023-05-08T03:58:00;102171.19;;;10.36;93.58
71770;BME280;66386;52.122;5.420;2023-05-08T04:00:53;102179.75;;;10.33;93.65
71770;BME280;66386;52.122;5.420;2023-05-08T04:09:14;102174.69;;;10.28;93.49
71770;BME280;66386;52.122;5.420;2023-05-08T04:12:21;102180.66;;;10.29;93.53
71770;BME280;66386;52.122;5.420;2023-05-08T04:14:55;102184.97;;;10.28;93.37
71770;BME280;66386;52.122;5.420;2023-05-08T04:20:03;102185.81;;;10.29;93.51
71770;BME280;66386;52.122;5.420;2023-05-08T04:22:32;102188.34;;;10.30;93.19
71770;BME280;66386;52.122;5.420;2023-05-08T04:25:02;102194.34;;;10.31;93.43
71770;BME280;66386;52.122;5.420;2023-05-08T04:27:29;102187.47;;;10.33;93.51
71770;BME280;66386;52.122;5.420;2023-05-08T04:29:57;102188.34;;;10.34;93.58
71770;BME280;66386;52.122;5.420;2023-05-08T04:32:24;102187.44;;;10.38;93.53
71770;BME280;66386;52.122;5.420;2023-05-08T04:34:52;102185.69;;;10.41;93.49
71770;BME280;66386;52.122;5.420;2023-05-08T04:37:23;102190.81;;;10.41;93.75
71770;BME280;66386;52.122;5.420;2023-05-08T04:39:51;102187.31;;;10.44;93.81
71770;BME280;66386;52.122;5.420;2023-05-08T04:42:18;102189.91;;;10.45;93.67
71770;BME280;66386;52.122;5.420;2023-05-08T04:44:44;102200.13;;;10.48;93.80
71770;BME280;66386;52.122;5.420;2023-05-08T04:47:13;102190.66;;;10.51;93.77
71770;BME280;66386;52.122;5.420;2023-05-08T04:49:39;102194.94;;;10.53;93.83
71770;BME280;66386;52.122;5.420;2023-05-08T04:52:06;102200.06;;;10.53;93.78
71770;BME280;66386;52.122;5.420;2023-05-08T04:54:33;102208.66;;;10.51;93.44
71770;BME280;66386;52.122;5.420;2023-05-08T04:57:00;102200.88;;;10.55;93.90
71770;BME280;66386;52.122;5.420;2023-05-08T04:59:27;102206.84;;;10.59;93.68
71770;BME280;66386;52.122;5.420;2023-05-08T05:01:55;102208.44;;;10.66;93.79
71770;BME280;66386;52.122;5.420;2023-05-08T05:04:22;102215.22;;;10.70;93.89
71770;BME280;66386;52.122;5.420;2023-05-08T05:06:48;102216.00;;;10.77;93.95
71770;BME280;66386;52.122;5.420;2023-05-08T05:09:15;102218.47;;;10.81;93.86
71770;BME280;66386;52.122;5.420;2023-05-08T05:11:41;102223.50;;;10.89;93.95
71770;BME280;66386;52.122;5.420;2023-05-08T05:14:08;102220.66;;;11.06;93.79
71770;BME280;66386;52.122;5.420;2023-05-08T05:16:34;102227.16;;;11.29;93.98
71770;BME280;66386;52.122;5.420;2023-05-08T05:19:01;102219.28;;;11.37;93.49
71770;BME280;66386;52.122;5.420;2023-05-08T05:21:27;102228.63;;;11.42;93.61
71770;BME280;66386;52.122;5.420;2023-05-08T05:23:54;102233.63;;;11.50;93.31
71770;BME280;66386;52.122;5.420;2023-05-08T05:26:20;102229.31;;;11.50;93.48
71770;BME280;66386;52.122;5.420;2023-05-08T05:28:47;102231.88;;;11.52;93.71
71770;BME280;66386;52.122;5.420;2023-05-08T05:31:14;102226.53;;;11.63;93.76
71770;BME280;66386;52.122;5.420;2023-05-08T05:33:40;102232.38;;;11.73;93.78
71770;BME280;66386;52.122;5.420;2023-05-08T05:36:07;102231.25;;;11.86;93.93
71770;BME280;66386;52.122;5.420;2023-05-08T05:38:34;102238.72;;;12.00;93.88
71770;BME280;66386;52.122;5.420;2023-05-08T05:41:00;102236.78;;;12.11;93.53
71770;BME280;66386;52.122;5.420;2023-05-08T05:43:27;102244.22;;;12.23;93.31
71770;BME280;66386;52.122;5.420;2023-05-08T05:45:53;102246.69;;;12.30;93.54
71770;BME280;66386;52.122;5.420;2023-05-08T05:48:21;102240.44;;;12.42;93.54
71770;BME280;66386;52.122;5.420;2023-05-08T05:50:47;102240.97;;;12.56;93.54
71770;BME280;66386;52.122;5.420;2023-05-08T05:53:14;102241.50;;;12.70;93.38
71770;BME280;66386;52.122;5.420;2023-05-08T05:55:41;102245.53;;;12.82;93.05
71770;BME280;66386;52.122;5.420;2023-05-08T05:58:07;102244.50;;;12.89;92.79
71770;BME280;66386;52.122;5.420;2023-05-08T06:00:34;102247.75;;;12.96;92.64
71770;BME280;66386;52.122;5.420;2023-05-08T06:03:00;102245.88;;;13.03;92.66
71770;BME280;66386;52.122;5.420;2023-05-08T06:05:28;102252.44;;;13.16;92.50
71770;BME280;66386;52.122;5.420;2023-05-08T06:07:55;102249.63;;;13.25;92.38
71770;BME280;66386;52.122;5.420;2023-05-08T06:10:21;102250.06;;;13.43;92.56
71770;BME280;66386;52.122;5.420;2023-05-08T06:12:48;102242.78;;;13.57;92.20
71770;BME280;66386;52.122;5.420;2023-05-08T06:15:14;102247.31;;;14.12;91.28
71770;BME280;66386;52.122;5.420;2023-05-08T06:17:41;102245.25;;;15.33;88.14
71770;BME280;66386;52.122;5.420;2023-05-08T06:20:08;102242.81;;;15.78;83.71
71770;BME280;66386;52.122;5.420;2023-05-08T06:22:35;102241.06;;;16.70;81.40
71770;BME280;66386;52.122;5.420;2023-05-08T06:25:05;102244.63;;;16.67;79.61
71770;BME280;66386;52.122;5.420;2023-05-08T06:27:35;102249.44;;;15.86;81.43
71770;BME280;66386;52.122;5.420;2023-05-08T06:30:03;102248.44;;;15.91;82.21
71770;BME280;66386;52.122;5.420;2023-05-08T06:32:29;102253.13;;;15.56;83.45
71770;BME280;66386;52.122;5.420;2023-05-08T06:34:59;102247.34;;;15.47;83.76
71770;BME280;66386;52.122;5.420;2023-05-08T06:37:25;102254.94;;;15.52;85.17
71770;BME280;66386;52.122;5.420;2023-05-08T06:39:52;102248.91;;;15.77;84.17
71770;BME280;66386;52.122;5.420;2023-05-08T06:42:36;102253.53;;;15.68;82.88
71770;BME280;66386;52.122;5.420;2023-05-08T06:45:04;102254.47;;;15.66;83.41
71770;BME280;66386;52.122;5.420;2023-05-08T06:47:30;102245.84;;;15.91;82.84
71770;BME280;66386;52.122;5.420;2023-05-08T06:49:57;102251.00;;;16.14;83.41
71770;BME280;66386;52.122;5.420;2023-05-08T06:52:23;102257.22;;;16.10;82.79
71770;BME280;66386;52.122;5.420;2023-05-08T06:54:50;102255.84;;;16.23;83.09
71770;BME280;66386;52.122;5.420;2023-05-08T06:57:17;102251.41;;;16.27;82.16
71770;BME280;66386;52.122;5.420;2023-05-08T06:59:43;102255.88;;;16.46;81.67
71770;BME280;66386;52.122;5.420;2023-05-08T07:02:10;102256.53;;;16.51;80.93
71770;BME280;66386;52.122;5.420;2023-05-08T07:04:37;102262.22;;;16.38;82.69
71770;BME280;66386;52.122;5.420;2023-05-08T07:07:04;102262.56;;;16.51;82.62
71770;BME280;66386;52.122;5.420;2023-05-08T07:09:32;102261.00;;;16.47;82.24
71770;BME280;66386;52.122;5.420;2023-05-08T07:11:58;102259.94;;;16.53;82.94
71770;BME280;66386;52.122;5.420;2023-05-08T07:14:25;102253.03;;;16.30;82.15
71770;BME280;66386;52.122;5.420;2023-05-08T07:16:52;102252.66;;;16.17;82.88
71770;BME280;66386;52.122;5.420;2023-05-08T07:19:19;102256.03;;;16.41;85.58
71770;BME280;66386;52.122;5.420;2023-05-08T07:21:47;102264.44;;;16.48;83.23
71770;BME280;66386;52.122;5.420;2023-05-08T07:24:14;102261.53;;;16.55;85.02
71770;BME280;66386;52.122;5.420;2023-05-08T07:26:40;102261.28;;;16.39;83.94
71770;BME280;66386;52.122;5.420;2023-05-08T07:29:07;102254.81;;;16.28;84.74
71770;BME280;66386;52.122;5.420;2023-05-08T07:31:34;102254.69;;;16.09;84.75
71770;BME280;66386;52.122;5.420;2023-05-08T07:34:01;102258.53;;;15.98;86.58
71770;BME280;66386;52.122;5.420;2023-05-08T07:36:27;102247.03;;;16.05;86.12
71770;BME280;66386;52.122;5.420;2023-05-08T07:38:54;102246.00;;;16.10;85.95
71770;BME280;66386;52.122;5.420;2023-05-08T07:41:20;102246.59;;;16.16;87.03
71770;BME280;66386;52.122;5.420;2023-05-08T07:43:47;102250.59;;;16.25;86.68
71770;BME280;66386;52.122;5.420;2023-05-08T07:46:17;102253.88;;;16.30;86.02
71770;BME280;66386;52.122;5.420;2023-05-08T07:48:44;102249.56;;;16.29;85.66
71770;BME280;66386;52.122;5.420;2023-05-08T07:51:10;102246.09;;;16.30;86.65
71770;BME280;66386;52.122;5.420;2023-05-08T07:53:37;102251.59;;;16.22;86.28
71770;BME280;66386;52.122;5.420;2023-05-08T07:56:04;102251.22;;;16.32;85.58
71770;BME280;66386;52.122;5.420;2023-05-08T07:58:30;102252.69;;;16.39;85.20
71770;BME280;66386;52.122;5.420;2023-05-08T08:00:57;102248.94;;;16.46;85.86
71770;BME280;66386;52.122;5.420;2023-05-08T08:03:23;102249.50;;;16.54;86.09
71770;BME280;66386;52.122;5.420;2023-05-08T08:05:50;102252.66;;;16.61;86.20
71770;BME280;66386;52.122;5.420;2023-05-08T08:08:16;102244.50;;;16.70;84.63
71770;BME280;66386;52.122;5.420;2023-05-08T08:10:43;102242.78;;;16.71;86.40
71770;BME280;66386;52.122;5.420;2023-05-08T08:13:09;102251.19;;;16.76;87.09
71770;BME280;66386;52.122;5.420;2023-05-08T08:15:36;102264.31;;;16.73;86.67
71770;BME280;66386;52.122;5.420;2023-05-08T08:18:02;102267.88;;;16.70;87.12
71770;BME280;66386;52.122;5.420;2023-05-08T08:20:29;102266.31;;;16.66;85.38
71770;BME280;66386;52.122;5.420;2023-05-08T08:22:55;102263.31;;;16.55;85.46
71770;BME280;66386;52.122;5.420;2023-05-08T08:25:22;102260.53;;;16.60;86.39
71770;BME280;66386;52.122;5.420;2023-05-08T08:27:49;102254.31;;;16.64;86.10
71770;BME280;66386;52.122;5.420;2023-05-08T08:30:16;102253.41;;;16.65;86.03
71770;BME280;66386;52.122;5.420;2023-05-08T08:32:44;102250.50;;;16.72;85.46
71770;BME280;66386;52.122;5.420;2023-05-08T08:35:11;102248.53;;;16.78;85.75
71770;BME280;66386;52.122;5.420;2023-05-08T08:37:38;102255.69;;;16.95;85.63
71770;BME280;66386;52.122;5.420;2023-05-08T08:40:05;102253.25;;;17.12;86.53
71770;BME280;66386;52.122;5.420;2023-05-08T08:42:31;102250.31;;;17.20;84.75
71770;BME280;66386;52.122;5.420;2023-05-08T08:44:59;102248.88;;;17.33;85.06
71770;BME280;66386;52.122;5.420;2023-05-08T08:47:28;102234.94;;;17.55;83.00
71770;BME280;66386;52.122;5.420;2023-05-08T08:49:57;102237.31;;;17.61;82.16
71770;BME280;66386;52.122;5.420;2023-05-08T08:52:46;102243.13;;;17.66;81.21
71770;BME280;66386;52.122;5.420;2023-05-08T08:55:16;102243.28;;;17.82;80.96
71770;BME280;66386;52.122;5.420;2023-05-08T09:00:51;102245.50;;;18.10;80.57
71770;BME280;66386;52.122;5.420;2023-05-08T09:03:20;102242.63;;;18.17;80.26
71770;BME280;66386;52.122;5.420;2023-05-08T09:05:47;102242.69;;;18.15;79.53
71770;BME280;66386;52.122;5.420;2023-05-08T09:08:14;102251.19;;;18.00;78.06
71770;BME280;66386;52.122;5.420;2023-05-08T09:10:41;102239.59;;;18.26;78.61
71770;BME280;66386;52.122;5.420;2023-05-08T09:13:07;102247.69;;;18.56;78.22
71770;BME280;66386;52.122;5.420;2023-05-08T09:15:34;102252.50;;;18.46;78.79
71770;BME280;66386;52.122;5.420;2023-05-08T09:18:01;102239.56;;;18.45;78.93
71770;BME280;66386;52.122;5.420;2023-05-08T09:20:28;102238.91;;;18.59;80.13
71770;BME280;66386;52.122;5.420;2023-05-08T09:22:56;102247.13;;;18.86;79.68
71770;BME280;66386;52.122;5.420;2023-05-08T09:25:23;102243.72;;;19.03;79.89
71770;BME280;66386;52.122;5.420;2023-05-08T09:27:49;102248.19;;;20.01;73.83
71770;BME280;66386;52.122;5.420;2023-05-08T09:30:15;102240.94;;;20.22;72.80
71770;BME280;66386;52.122;5.420;2023-05-08T09:32:43;102243.47;;;20.08;71.85
71770;BME280;66386;52.122;5.420;2023-05-08T09:35:11;102249.84;;;19.86;73.50
71770;BME280;66386;52.122;5.420;2023-05-08T09:37:40;102248.50;;;19.79;75.29
71770;BME280;66386;52.122;5.420;2023-05-08T09:42:41;102248.31;;;19.49;75.92
71770;BME280;66386;52.122;5.420;2023-05-08T09:45:08;102234.22;;;19.69;75.43
71770;BME280;66386;52.122;5.420;2023-05-08T09:47:35;102246.56;;;19.65;74.25
71770;BME280;66386;52.122;5.420;2023-05-08T09:50:09;102250.09;;;19.48;75.51
71770;BME280;66386;52.122;5.420;2023-05-08T09:52:37;102246.91;;;19.59;76.23
71770;BME280;66386;52.122;5.420;2023-05-08T09:55:09;102245.38;;;19.55;75.30
71770;BME280;66386;52.122;5.420;2023-05-08T09:57:39;102246.56;;;19.49;74.51
71770;BME280;66386;52.122;5.420;2023-05-08T10:00:08;102245.03;;;19.45;73.97
71770;BME280;66386;52.122;5.420;2023-05-08T10:02:36;102250.25;;;19.45;74.54
71770;BME280;66386;52.122;5.420;2023-05-08T10:05:04;102247.16;;;19.54;75.19
71770;BME280;66386;52.122;5.420;2023-05-08T10:07:47;102244.09;;;19.46;73.65
71770;BME280;66386;52.122;5.420;2023-05-08T10:10:14;102251.50;;;19.21;76.01
71770;BME280;66386;52.122;5.420;2023-05-08T10:12:40;102244.75;;;19.34;74.88
71770;BME280;66386;52.122;5.420;2023-05-08T10:15:07;102252.88;;;19.45;76.55
71770;BME280;66386;52.122;5.420;2023-05-08T10:17:43;102245.72;;;19.49;75.37
71770;BME280;66386;52.122;5.420;2023-05-08T10:20:14;102255.81;;;19.55;74.82
71770;BME280;66386;52.122;5.420;2023-05-08T10:22:42;102256.84;;;19.52;76.11
71770;BME280;66386;52.122;5.420;2023-05-08T10:25:15;102245.72;;;19.49;75.19
71770;BME280;66386;52.122;5.420;2023-05-08T10:27:47;102255.69;;;19.58;76.05
71770;BME280;66386;52.122;5.420;2023-05-08T10:30:23;102251.28;;;19.59;76.76
71770;BME280;66386;52.122;5.420;2023-05-08T10:32:51;102247.53;;;19.64;75.48
71770;BME280;66386;52.122;5.420;2023-05-08T10:35:21;102254.03;;;19.40;75.02
71770;BME280;66386;52.122;5.420;2023-05-08T10:37:48;102245.56;;;19.34;74.89
71770;BME280;66386;52.122;5.420;2023-05-08T10:40:15;102248.47;;;19.46;75.85
71770;BME280;66386;52.122;5.420;2023-05-08T10:42:43;102243.75;;;19.70;75.20
71770;BME280;66386;52.122;5.420;2023-05-08T10:45:10;102249.84;;;19.86;75.29
71770;BME280;66386;52.122;5.420;2023-05-08T10:47:53;102243.75;;;20.19;74.59
71770;BME280;66386;52.122;5.420;2023-05-08T10:50:35;102255.31;;;20.46;73.03
71770;BME280;66386;52.122;5.420;2023-05-08T10:53:17;102259.28;;;20.99;71.20
71770;BME280;66386;52.122;5.420;2023-05-08T10:55:49;102252.19;;;21.16;70.43
71770;BME280;66386;52.122;5.420;2023-05-08T11:03:19;102252.56;;;20.49;70.06
71770;BME280;66386;52.122;5.420;2023-05-08T11:05:59;102248.25;;;20.32;70.62
71770;BME280;66386;52.122;5.420;2023-05-08T11:08:27;102248.19;;;20.17;70.83
71770;BME280;66386;52.122;5.420;2023-05-08T11:13:34;102242.69;;;20.06;72.52
71770;BME280;66386;52.122;5.420;2023-05-08T11:16:01;102244.06;;;20.13;71.79
71770;BME280;66386;52.122;5.420;2023-05-08T11:18:29;102238.50;;;20.03;71.02
71770;BME280;66386;52.122;5.420;2023-05-08T11:21:18;102235.47;;;20.11;70.31
71770;BME280;66386;52.122;5.420;2023-05-08T11:23:55;102231.00;;;20.13;71.72
71770;BME280;66386;52.122;5.420;2023-05-08T11:26:37;102229.34;;;20.12;70.68
71770;BME280;66386;52.122;5.420;2023-05-08T11:29:15;102235.13;;;20.01;70.48
71770;BME280;66386;52.122;5.420;2023-05-08T11:31:50;102227.47;;;19.98;72.15
71770;BME280;66386;52.122;5.420;2023-05-08T11:34:46;102229.66;;;20.22;72.57
71770;BME280;66386;52.122;5.420;2023-05-08T11:37:19;102216.97;;;20.62;71.09
71770;BME280;66386;52.122;5.420;2023-05-08T11:39:46;102214.63;;;20.88;68.66
71770;BME280;66386;52.122;5.420;2023-05-08T11:45:07;102216.41;;;20.87;68.85
71770;BME280;66386;52.122;5.420;2023-05-08T11:47:40;102219.22;;;20.99;67.29
71770;BME280;66386;52.122;5.420;2023-05-08T11:50:09;102217.63;;;20.96;69.05
71770;BME280;66386;52.122;5.420;2023-05-08T11:52:37;102210.56;;;21.13;68.53
71770;BME280;66386;52.122;5.420;2023-05-08T11:55:06;102217.97;;;21.20;66.70
71770;BME280;66386;52.122;5.420;2023-05-08T11:57:33;102208.97;;;20.96;67.03
71770;BME280;66386;52.122;5.420;2023-05-08T12:00:07;102214.28;;;20.94;68.61
71770;BME280;66386;52.122;5.420;2023-05-08T12:02:39;102211.34;;;20.84;69.35
71770;BME280;66386;52.122;5.420;2023-05-08T12:05:07;102209.72;;;20.67;70.64
71770;BME280;66386;52.122;5.420;2023-05-08T12:07:47;102211.56;;;20.65;68.72
71770;BME280;66386;52.122;5.420;2023-05-08T12:10:14;102207.16;;;20.82;68.84
71770;BME280;66386;52.122;5.420;2023-05-08T12:12:43;102201.94;;;20.96;68.43
71770;BME280;66386;52.122;5.420;2023-05-08T12:15:12;102208.41;;;21.05;68.15
71770;BME280;66386;52.122;5.420;2023-05-08T12:17:40;102204.28;;;21.01;67.55
71770;BME280;66386;52.122;5.420;2023-05-08T12:20:14;102206.63;;;20.91;67.58
71770;BME280;66386;52.122;5.420;2023-05-08T12:22:51;102201.88;;;20.67;67.50
71770;BME280;66386;52.122;5.420;2023-05-08T12:25:18;102193.84;;;21.15;67.05
71770;BME280;66386;52.122;5.420;2023-05-08T12:27:47;102190.13;;;21.48;65.40
71770;BME280;66386;52.122;5.420;2023-05-08T12:30:14;102194.16;;;21.54;63.76
71770;BME280;66386;52.122;5.420;2023-05-08T12:32:42;102194.78;;;21.43;66.52
71770;BME280;66386;52.122;5.420;2023-05-08T12:35:10;102196.38;;;21.45;66.77
71770;BME280;66386;52.122;5.420;2023-05-08T12:37:38;102196.94;;;21.51;67.46
71770;BME280;66386;52.122;5.420;2023-05-08T12:40:05;102193.56;;;21.49;67.07
71770;BME280;66386;52.122;5.420;2023-05-08T12:42:47;102194.91;;;21.97;66.32
71770;BME280;66386;52.122;5.420;2023-05-08T12:47:45;102183.16;;;22.18;62.77
71770;BME280;66386;52.122;5.420;2023-05-08T12:50:17;102184.13;;;22.17;62.90
71770;BME280;66386;52.122;5.420;2023-05-08T12:52:44;102176.84;;;22.35;62.67
71770;BME280;66386;52.122;5.420;2023-05-08T12:55:27;102166.78;;;22.41;62.29
71770;BME280;66386;52.122;5.420;2023-05-08T12:58:12;102166.94;;;22.65;62.40
71770;BME280;66386;52.122;5.420;2023-05-08T13:00:45;102168.28;;;22.45;60.70
71770;BME280;66386;52.122;5.420;2023-05-08T13:03:21;102163.22;;;22.15;62.70
71770;BME280;66386;52.122;5.420;2023-05-08T13:05:48;102153.88;;;21.98;61.35
71770;BME280;66386;52.122;5.420;2023-05-08T13:08:14;102156.03;;;21.91;63.19
71770;BME280;66386;52.122;5.420;2023-05-08T13:13:16;102158.41;;;21.82;60.59
71770;BME280;66386;52.122;5.420;2023-05-08T13:15:43;102164.34;;;21.56;62.31
71770;BME280;66386;52.122;5.420;2023-05-08T13:18:10;102152.75;;;21.60;62.56
71770;BME280;66386;52.122;5.420;2023-05-08T13:20:37;102151.06;;;21.59;63.26
71770;BME280;66386;52.122;5.420;2023-05-08T13:23:04;102160.16;;;21.54;63.63
71770;BME280;66386;52.122;5.420;2023-05-08T13:25:31;102155.28;;;21.62;63.77
71770;BME280;66386;52.122;5.420;2023-05-08T13:27:57;102153.13;;;21.69;62.63
71770;BME280;66386;52.122;5.420;2023-05-08T13:30:24;102156.06;;;21.77;63.54
71770;BME280;66386;52.122;5.420;2023-05-08T13:32:51;102150.56;;;21.82;62.88
71770;BME280;66386;52.122;5.420;2023-05-08T13:35:18;102149.31;;;21.87;64.48
71770;BME280;66386;52.122;5.420;2023-05-08T13:37:46;102152.22;;;21.83;62.95
71770;BME280;66386;52.122;5.420;2023-05-08T13:40:13;102139.88;;;21.57;63.03
71770;BME280;66386;52.122;5.420;2023-05-08T13:42:39;102153.59;;;21.47;65.13
71770;BME280;66386;52.122;5.420;2023-05-08T13:45:07;102145.84;;;21.45;64.40
71770;BME280;66386;52.122;5.420;2023-05-08T13:47:34;102144.16;;;21.58;65.35